sensor_id;sensor_type;location;lat;lon;timestamp;temperature;humidity
10062;DHT22;5070;52.382;5.270;2022-07-29T00:02:15;24.20;56.50
10062;DHT22;5070;52.382;5.270;2022-07-29T00:04:45;24.20;56.50
10062;DHT22;5070;52.382;5.270;2022-07-29T00:07:13;24.10;56.40
10062;DHT22;5070;52.382;5.270;2022-07-29T00:09:41;24.20;56.50
10062;DHT22;5070;52.382;5.270;2022-07-29T00:12:20;24.20;56.50
10062;DHT22;5070;52.382;5.270;2022-07-29T00:14:54;24.20;56.60
10062;DHT22;5070;52.382;5.270;2022-07-29T00:17:23;24.10;56.50
10062;DHT22;5070;52.382;5.270;2022-07-29T00:19:52;24.10;56.50
10062;DHT22;5070;52.382;5.270;2022-07-29T00:22:20;24.10;56.50
10062;DHT22;5070;52.382;5.270;2022-07-29T00:24:48;24.10;56.50
10062;DHT22;5070;52.382;5.270;2022-07-29T00:27:16;24.10;56.50
10062;DHT22;5070;52.382;5.270;2022-07-29T00:29:47;24.10;56.50
10062;DHT22;5070;52.382;5.270;2022-07-29T00:32:18;24.10;56.50
10062;DHT22;5070;52.382;5.270;2022-07-29T00:34:45;24.10;56.50
10062;DHT22;5070;52.382;5.270;2022-07-29T00:37:31;24.10;56.50
10062;DHT22;5070;52.382;5.270;2022-07-29T00:39:59;24.10;56.50
10062;DHT22;5070;52.382;5.270;2022-07-29T00:42:27;24.10;56.50
10062;DHT22;5070;52.382;5.270;2022-07-29T00:44:56;24.10;56.50
10062;DHT22;5070;52.382;5.270;2022-07-29T00:47:24;24.10;56.50
10062;DHT22;5070;52.382;5.270;2022-07-29T00:49:52;24.10;56.60
10062;DHT22;5070;52.382;5.270;2022-07-29T00:52:20;24.00;56.50
10062;DHT22;5070;52.382;5.270;2022-07-29T00:54:48;24.00;56.50
10062;DHT22;5070;52.382;5.270;2022-07-29T00:57:16;24.00;56.50
10062;DHT22;5070;52.382;5.270;2022-07-29T00:59:44;24.00;56.60
10062;DHT22;5070;52.382;5.270;2022-07-29T01:02:13;24.00;56.60
10062;DHT22;5070;52.382;5.270;2022-07-29T01:04:41;24.00;56.60
10062;DHT22;5070;52.382;5.270;2022-07-29T01:07:10;24.00;56.60
10062;DHT22;5070;52.382;5.270;2022-07-29T01:09:38;24.00;56.60
10062;DHT22;5070;52.382;5.270;2022-07-29T01:12:13;24.00;56.60
10062;DHT22;5070;52.382;5.270;2022-07-29T01:14:44;24.00;56.60
10062;DHT22;5070;52.382;5.270;2022-07-29T01:17:20;24.00;56.60
10062;DHT22;5070;52.382;5.270;2022-07-29T01:19:52;24.00;56.60
10062;DHT22;5070;52.382;5.270;2022-07-29T01:22:35;24.00;56.60
10062;DHT22;5070;52.382;5.270;2022-07-29T01:25:26;24.00;56.70
10062;DHT22;5070;52.382;5.270;2022-07-29T01:28:08;23.90;56.60
10062;DHT22;5070;52.382;5.270;2022-07-29T01:30:44;23.90;56.60
10062;DHT22;5070;52.382;5.270;2022-07-29T01:33:15;23.90;56.60
10062;DHT22;5070;52.382;5.270;2022-07-29T01:36:00;23.90;56.60
10062;DHT22;5070;52.382;5.270;2022-07-29T01:38:29;23.90;56.70
10062;DHT22;5070;52.382;5.270;2022-07-29T01:41:02;23.90;56.70
10062;DHT22;5070;52.382;5.270;2022-07-29T01:43:36;23.90;56.70
10062;DHT22;5070;52.382;5.270;2022-07-29T01:46:11;23.90;56.70
10062;DHT22;5070;52.382;5.270;2022-07-29T01:48:46;23.90;56.70
10062;DHT22;5070;52.382;5.270;2022-07-29T01:51:19;23.90;56.70
10062;DHT22;5070;52.382;5.270;2022-07-29T01:53:51;23.90;56.70
10062;DHT22;5070;52.382;5.270;2022-07-29T01:56:23;23.90;56.70
10062;DHT22;5070;52.382;5.270;2022-07-29T01:58:52;23.90;56.80
10062;DHT22;5070;52.382;5.270;2022-07-29T02:01:23;23.80;56.60
10062;DHT22;5070;52.382;5.270;2022-07-29T02:03:56;23.80;56.70
10062;DHT22;5070;52.382;5.270;2022-07-29T02:06:25;23.90;56.70
10062;DHT22;5070;52.382;5.270;2022-07-29T02:08:56;23.80;56.70
10062;DHT22;5070;52.382;5.270;2022-07-29T02:11:25;23.80;56.70
10062;DHT22;5070;52.382;5.270;2022-07-29T02:13:55;23.80;56.70
10062;DHT22;5070;52.382;5.270;2022-07-29T02:16:27;23.80;56.70
10062;DHT22;5070;52.382;5.270;2022-07-29T02:18:57;23.80;56.70
10062;DHT22;5070;52.382;5.270;2022-07-29T02:21:29;23.80;56.70
10062;DHT22;5070;52.382;5.270;2022-07-29T02:23:59;23.80;56.70
10062;DHT22;5070;52.382;5.270;2022-07-29T02:26:29;23.80;56.70
10062;DHT22;5070;52.382;5.270;2022-07-29T02:28:58;23.80;56.70
10062;DHT22;5070;52.382;5.270;2022-07-29T02:31:33;23.80;56.70
10062;DHT22;5070;52.382;5.270;2022-07-29T02:34:02;23.80;56.70
10062;DHT22;5070;52.382;5.270;2022-07-29T02:36:31;23.80;56.70
10062;DHT22;5070;52.382;5.270;2022-07-29T02:39:02;23.70;56.70
10062;DHT22;5070;52.382;5.270;2022-07-29T02:41:35;23.80;56.80
10062;DHT22;5070;52.382;5.270;2022-07-29T02:44:08;23.80;56.80
10062;DHT22;5070;52.382;5.270;2022-07-29T02:46:43;23.80;56.80
10062;DHT22;5070;52.382;5.270;2022-07-29T02:49:16;23.70;56.80
10062;DHT22;5070;52.382;5.270;2022-07-29T02:51:52;23.70;56.90
10062;DHT22;5070;52.382;5.270;2022-07-29T02:54:26;23.70;56.80
10062;DHT22;5070;52.382;5.270;2022-07-29T02:56:59;23.70;56.90
10062;DHT22;5070;52.382;5.270;2022-07-29T02:59:30;23.70;56.80
10062;DHT22;5070;52.382;5.270;2022-07-29T03:02:02;23.70;56.90
10062;DHT22;5070;52.382;5.270;2022-07-29T03:04:32;23.70;56.80
10062;DHT22;5070;52.382;5.270;2022-07-29T03:07:02;23.70;56.90
10062;DHT22;5070;52.382;5.270;2022-07-29T03:09:31;23.60;56.90
10062;DHT22;5070;52.382;5.270;2022-07-29T03:12:00;23.60;56.90
10062;DHT22;5070;52.382;5.270;2022-07-29T03:14:29;23.60;56.90
10062;DHT22;5070;52.382;5.270;2022-07-29T03:16:58;23.60;57.00
10062;DHT22;5070;52.382;5.270;2022-07-29T03:19:30;23.60;57.00
10062;DHT22;5070;52.382;5.270;2022-07-29T03:21:58;23.60;57.00
10062;DHT22;5070;52.382;5.270;2022-07-29T03:24:29;23.60;57.10
10062;DHT22;5070;52.382;5.270;2022-07-29T03:26:57;23.60;57.10
10062;DHT22;5070;52.382;5.270;2022-07-29T03:29:26;23.60;57.10
10062;DHT22;5070;52.382;5.270;2022-07-29T03:32:01;23.60;57.10
10062;DHT22;5070;52.382;5.270;2022-07-29T03:34:35;23.60;57.10
10062;DHT22;5070;52.382;5.270;2022-07-29T03:37:04;23.60;57.10
10062;DHT22;5070;52.382;5.270;2022-07-29T03:39:36;23.60;57.00
10062;DHT22;5070;52.382;5.270;2022-07-29T03:42:07;23.60;57.10
10062;DHT22;5070;52.382;5.270;2022-07-29T03:44:37;23.50;57.00
10062;DHT22;5070;52.382;5.270;2022-07-29T03:47:06;23.50;57.00
10062;DHT22;5070;52.382;5.270;2022-07-29T03:49:37;23.50;57.10
10062;DHT22;5070;52.382;5.270;2022-07-29T03:52:07;23.50;57.10
10062;DHT22;5070;52.382;5.270;2022-07-29T03:54:36;23.50;57.10
10062;DHT22;5070;52.382;5.270;2022-07-29T03:57:05;23.50;57.10
10062;DHT22;5070;52.382;5.270;2022-07-29T03:59:36;23.50;57.10
10062;DHT22;5070;52.382;5.270;2022-07-29T04:02:09;23.50;57.20
10062;DHT22;5070;52.382;5.270;2022-07-29T04:04:41;23.50;57.10
10062;DHT22;5070;52.382;5.270;2022-07-29T04:07:11;23.50;57.20
10062;DHT22;5070;52.382;5.270;2022-07-29T04:09:40;23.50;57.20
10062;DHT22;5070;52.382;5.270;2022-07-29T04:12:08;23.50;57.20
10062;DHT22;5070;52.382;5.270;2022-07-29T04:14:36;23.50;57.20
10062;DHT22;5070;52.382;5.270;2022-07-29T04:17:04;23.40;57.20
10062;DHT22;5070;52.382;5.270;2022-07-29T04:19:32;23.40;57.20
10062;DHT22;5070;52.382;5.270;2022-07-29T04:22:05;23.40;57.20
10062;DHT22;5070;52.382;5.270;2022-07-29T04:24:33;23.40;57.20
10062;DHT22;5070;52.382;5.270;2022-07-29T04:27:02;23.40;57.20
10062;DHT22;5070;52.382;5.270;2022-07-29T04:29:29;23.40;57.20
10062;DHT22;5070;52.382;5.270;2022-07-29T04:31:57;23.40;57.20
10062;DHT22;5070;52.382;5.270;2022-07-29T04:34:25;23.40;57.20
10062;DHT22;5070;52.382;5.270;2022-07-29T04:36:54;23.40;57.20
10062;DHT22;5070;52.382;5.270;2022-07-29T04:39:23;23.40;57.30
10062;DHT22;5070;52.382;5.270;2022-07-29T04:41:56;23.40;57.30
10062;DHT22;5070;52.382;5.270;2022-07-29T04:44:24;23.40;57.30
10062;DHT22;5070;52.382;5.270;2022-07-29T04:46:55;23.40;57.20
10062;DHT22;5070;52.382;5.270;2022-07-29T04:49:24;23.40;57.30
10062;DHT22;5070;52.382;5.270;2022-07-29T04:51:52;23.30;57.30
10062;DHT22;5070;52.382;5.270;2022-07-29T04:54:20;23.30;57.40
10062;DHT22;5070;52.382;5.270;2022-07-29T04:56:51;23.30;57.30
10062;DHT22;5070;52.382;5.270;2022-07-29T04:59:19;23.30;57.30
10062;DHT22;5070;52.382;5.270;2022-07-29T05:01:47;23.30;57.40
10062;DHT22;5070;52.382;5.270;2022-07-29T05:04:15;23.30;57.30
10062;DHT22;5070;52.382;5.270;2022-07-29T05:06:43;23.30;57.30
10062;DHT22;5070;52.382;5.270;2022-07-29T05:09:12;23.30;57.30
10062;DHT22;5070;52.382;5.270;2022-07-29T05:11:40;23.30;57.30
10062;DHT22;5070;52.382;5.270;2022-07-29T05:14:09;23.30;57.40
10062;DHT22;5070;52.382;5.270;2022-07-29T05:16:37;23.30;57.30
10062;DHT22;5070;52.382;5.270;2022-07-29T05:19:07;23.30;57.40
10062;DHT22;5070;52.382;5.270;2022-07-29T05:21:40;23.20;57.40
10062;DHT22;5070;52.382;5.270;2022-07-29T05:24:10;23.20;57.50
10062;DHT22;5070;52.382;5.270;2022-07-29T05:26:39;23.20;57.50
10062;DHT22;5070;52.382;5.270;2022-07-29T05:29:09;23.20;57.50
10062;DHT22;5070;52.382;5.270;2022-07-29T05:31:57;23.20;57.60
10062;DHT22;5070;52.382;5.270;2022-07-29T05:34:26;23.20;57.60
10062;DHT22;5070;52.382;5.270;2022-07-29T05:36:58;23.20;57.60
10062;DHT22;5070;52.382;5.270;2022-07-29T05:39:26;23.20;57.60
10062;DHT22;5070;52.382;5.270;2022-07-29T05:42:14;23.20;57.60
10062;DHT22;5070;52.382;5.270;2022-07-29T05:44:43;23.20;57.60
10062;DHT22;5070;52.382;5.270;2022-07-29T05:47:11;23.20;57.60
10062;DHT22;5070;52.382;5.270;2022-07-29T05:49:50;23.20;57.70
10062;DHT22;5070;52.382;5.270;2022-07-29T05:52:20;23.10;57.80
10062;DHT22;5070;52.382;5.270;2022-07-29T05:54:48;23.10;57.70
10062;DHT22;5070;52.382;5.270;2022-07-29T05:57:17;23.10;57.60
10062;DHT22;5070;52.382;5.270;2022-07-29T05:59:47;23.10;57.80
10062;DHT22;5070;52.382;5.270;2022-07-29T06:02:16;23.10;57.70
10062;DHT22;5070;52.382;5.270;2022-07-29T06:04:44;23.10;57.70
10062;DHT22;5070;52.382;5.270;2022-07-29T06:07:12;23.10;57.80
10062;DHT22;5070;52.382;5.270;2022-07-29T06:09:40;23.10;57.70
10062;DHT22;5070;52.382;5.270;2022-07-29T06:12:08;23.10;57.80
10062;DHT22;5070;52.382;5.270;2022-07-29T06:14:36;23.10;57.90
10062;DHT22;5070;52.382;5.270;2022-07-29T06:17:06;23.10;57.90
10062;DHT22;5070;52.382;5.270;2022-07-29T06:19:35;23.10;57.90
10062;DHT22;5070;52.382;5.270;2022-07-29T06:22:03;23.10;57.90
10062;DHT22;5070;52.382;5.270;2022-07-29T06:24:31;23.10;57.90
10062;DHT22;5070;52.382;5.270;2022-07-29T06:26:59;23.10;57.90
10062;DHT22;5070;52.382;5.270;2022-07-29T06:29:27;23.10;57.90
10062;DHT22;5070;52.382;5.270;2022-07-29T06:31:55;23.10;57.90
10062;DHT22;5070;52.382;5.270;2022-07-29T06:34:24;23.10;57.90
10062;DHT22;5070;52.382;5.270;2022-07-29T06:36:52;23.10;57.90
10062;DHT22;5070;52.382;5.270;2022-07-29T06:39:21;23.10;58.00
10062;DHT22;5070;52.382;5.270;2022-07-29T06:41:50;23.10;57.90
10062;DHT22;5070;52.382;5.270;2022-07-29T06:44:23;23.10;57.90
10062;DHT22;5070;52.382;5.270;2022-07-29T06:46:52;23.10;57.90
10062;DHT22;5070;52.382;5.270;2022-07-29T06:49:21;23.00;57.90
10062;DHT22;5070;52.382;5.270;2022-07-29T06:51:51;23.00;57.90
10062;DHT22;5070;52.382;5.270;2022-07-29T06:54:19;23.00;57.90
10062;DHT22;5070;52.382;5.270;2022-07-29T06:56:48;23.00;57.90
10062;DHT22;5070;52.382;5.270;2022-07-29T06:59:19;23.00;57.90
10062;DHT22;5070;52.382;5.270;2022-07-29T07:01:57;23.00;58.00
10062;DHT22;5070;52.382;5.270;2022-07-29T07:04:25;23.00;57.90
10062;DHT22;5070;52.382;5.270;2022-07-29T07:06:55;23.00;58.00
10062;DHT22;5070;52.382;5.270;2022-07-29T07:09:23;23.00;58.00
10062;DHT22;5070;52.382;5.270;2022-07-29T07:12:06;23.00;58.00
10062;DHT22;5070;52.382;5.270;2022-07-29T07:14:34;23.00;58.10
10062;DHT22;5070;52.382;5.270;2022-07-29T07:17:02;23.00;58.10
10062;DHT22;5070;52.382;5.270;2022-07-29T07:19:30;23.00;58.20
10062;DHT22;5070;52.382;5.270;2022-07-29T07:22:00;23.00;58.20
10062;DHT22;5070;52.382;5.270;2022-07-29T07:24:30;23.00;58.20
10062;DHT22;5070;52.382;5.270;2022-07-29T07:26:58;23.00;58.20
10062;DHT22;5070;52.382;5.270;2022-07-29T07:29:26;23.00;58.30
10062;DHT22;5070;52.382;5.270;2022-07-29T07:31:54;23.00;58.30
10062;DHT22;5070;52.382;5.270;2022-07-29T07:34:27;23.00;58.30
10062;DHT22;5070;52.382;5.270;2022-07-29T07:36:55;23.00;58.30
10062;DHT22;5070;52.382;5.270;2022-07-29T07:39:24;23.00;58.40
10062;DHT22;5070;52.382;5.270;2022-07-29T07:41:52;23.00;58.50
10062;DHT22;5070;52.382;5.270;2022-07-29T07:44:20;23.00;58.50
10062;DHT22;5070;52.382;5.270;2022-07-29T07:46:49;23.00;58.50
10062;DHT22;5070;52.382;5.270;2022-07-29T07:49:17;23.00;58.50
10062;DHT22;5070;52.382;5.270;2022-07-29T07:51:45;23.00;58.50
10062;DHT22;5070;52.382;5.270;2022-07-29T07:54:16;23.00;58.60
10062;DHT22;5070;52.382;5.270;2022-07-29T07:56:48;23.00;58.60
10062;DHT22;5070;52.382;5.270;2022-07-29T07:59:19;23.00;58.60
10062;DHT22;5070;52.382;5.270;2022-07-29T08:01:47;23.00;58.60
10062;DHT22;5070;52.382;5.270;2022-07-29T08:04:22;22.90;58.60
10062;DHT22;5070;52.382;5.270;2022-07-29T08:06:54;23.00;58.60
10062;DHT22;5070;52.382;5.270;2022-07-29T08:09:23;23.00;58.70
10062;DHT22;5070;52.382;5.270;2022-07-29T08:11:58;23.00;58.70
10062;DHT22;5070;52.382;5.270;2022-07-29T08:14:29;22.90;58.60
10062;DHT22;5070;52.382;5.270;2022-07-29T08:16:57;23.00;59.20
10062;DHT22;5070;52.382;5.270;2022-07-29T08:19:25;23.00;58.70
10062;DHT22;5070;52.382;5.270;2022-07-29T08:21:54;23.00;58.70
10062;DHT22;5070;52.382;5.270;2022-07-29T08:24:22;23.00;58.70
10062;DHT22;5070;52.382;5.270;2022-07-29T08:27:09;23.00;58.70
10062;DHT22;5070;52.382;5.270;2022-07-29T08:29:57;22.90;58.70
10062;DHT22;5070;52.382;5.270;2022-07-29T08:32:25;22.90;58.80
10062;DHT22;5070;52.382;5.270;2022-07-29T08:35:15;23.00;58.80
10062;DHT22;5070;52.382;5.270;2022-07-29T08:37:42;22.90;58.90
10062;DHT22;5070;52.382;5.270;2022-07-29T08:40:11;23.00;58.90
10062;DHT22;5070;52.382;5.270;2022-07-29T08:42:40;23.00;59.00
10062;DHT22;5070;52.382;5.270;2022-07-29T08:45:09;23.00;59.00
10062;DHT22;5070;52.382;5.270;2022-07-29T08:47:38;23.00;59.00
10062;DHT22;5070;52.382;5.270;2022-07-29T08:50:10;23.00;59.10
10062;DHT22;5070;52.382;5.270;2022-07-29T08:52:39;23.00;59.10
10062;DHT22;5070;52.382;5.270;2022-07-29T08:55:09;23.00;59.10
10062;DHT22;5070;52.382;5.270;2022-07-29T08:57:42;23.00;59.20
10062;DHT22;5070;52.382;5.270;2022-07-29T09:00:26;23.00;59.20
10062;DHT22;5070;52.382;5.270;2022-07-29T09:02:57;23.00;59.20
10062;DHT22;5070;52.382;5.270;2022-07-29T09:05:26;23.00;59.20
10062;DHT22;5070;52.382;5.270;2022-07-29T09:07:54;23.00;59.20
10062;DHT22;5070;52.382;5.270;2022-07-29T09:10:22;23.00;59.20
10062;DHT22;5070;52.382;5.270;2022-07-29T09:12:52;23.00;59.20
10062;DHT22;5070;52.382;5.270;2022-07-29T09:15:21;23.00;59.20
10062;DHT22;5070;52.382;5.270;2022-07-29T09:17:50;23.00;59.30
10062;DHT22;5070;52.382;5.270;2022-07-29T09:20:20;23.00;59.30
10062;DHT22;5070;52.382;5.270;2022-07-29T09:22:49;23.00;59.30
10062;DHT22;5070;52.382;5.270;2022-07-29T09:25:32;23.00;59.30
10062;DHT22;5070;52.382;5.270;2022-07-29T09:28:07;23.00;59.30
10062;DHT22;5070;52.382;5.270;2022-07-29T09:30:37;23.00;59.30
10062;DHT22;5070;52.382;5.270;2022-07-29T09:33:17;23.00;59.40
10062;DHT22;5070;52.382;5.270;2022-07-29T09:35:45;23.00;59.30
10062;DHT22;5070;52.382;5.270;2022-07-29T09:38:22;23.00;59.30
10062;DHT22;5070;52.382;5.270;2022-07-29T09:40:56;23.00;59.40
10062;DHT22;5070;52.382;5.270;2022-07-29T09:43:33;23.00;59.40
10062;DHT22;5070;52.382;5.270;2022-07-29T09:46:09;23.00;59.40
10062;DHT22;5070;52.382;5.270;2022-07-29T09:48:38;23.00;59.40
10062;DHT22;5070;52.382;5.270;2022-07-29T09:51:17;23.00;59.40
10062;DHT22;5070;52.382;5.270;2022-07-29T09:53:47;23.00;59.50
10062;DHT22;5070;52.382;5.270;2022-07-29T09:56:15;23.00;59.50
10062;DHT22;5070;52.382;5.270;2022-07-29T09:58:44;23.00;59.50
10062;DHT22;5070;52.382;5.270;2022-07-29T10:01:12;23.00;59.50
10062;DHT22;5070;52.382;5.270;2022-07-29T10:03:50;23.00;59.60
10062;DHT22;5070;52.382;5.270;2022-07-29T10:06:18;23.00;59.70
10062;DHT22;5070;52.382;5.270;2022-07-29T10:08:46;23.00;59.60
10062;DHT22;5070;52.382;5.270;2022-07-29T10:11:17;23.00;59.70
10062;DHT22;5070;52.382;5.270;2022-07-29T10:13:47;23.00;59.70
10062;DHT22;5070;52.382;5.270;2022-07-29T10:16:18;23.00;60.40
10062;DHT22;5070;52.382;5.270;2022-07-29T10:18:46;23.00;59.80
10062;DHT22;5070;52.382;5.270;2022-07-29T10:21:14;23.00;59.80
10062;DHT22;5070;52.382;5.270;2022-07-29T10:24:09;23.00;59.90
10062;DHT22;5070;52.382;5.270;2022-07-29T10:26:41;23.00;59.90
10062;DHT22;5070;52.382;5.270;2022-07-29T10:29:11;23.10;60.00
10062;DHT22;5070;52.382;5.270;2022-07-29T10:31:46;23.10;60.00
10062;DHT22;5070;52.382;5.270;2022-07-29T10:34:23;23.10;60.00
10062;DHT22;5070;52.382;5.270;2022-07-29T10:37:00;23.00;60.00
10062;DHT22;5070;52.382;5.270;2022-07-29T10:39:39;23.10;60.10
10062;DHT22;5070;52.382;5.270;2022-07-29T10:42:18;23.10;60.10
10062;DHT22;5070;52.382;5.270;2022-07-29T10:45:02;23.10;60.20
10062;DHT22;5070;52.382;5.270;2022-07-29T10:47:31;23.10;60.20
10062;DHT22;5070;52.382;5.270;2022-07-29T10:50:02;23.10;60.30
10062;DHT22;5070;52.382;5.270;2022-07-29T10:52:53;23.10;60.30
10062;DHT22;5070;52.382;5.270;2022-07-29T10:55:31;23.10;60.40
10062;DHT22;5070;52.382;5.270;2022-07-29T10:58:13;23.10;60.40
10062;DHT22;5070;52.382;5.270;2022-07-29T11:00:45;23.10;60.50
10062;DHT22;5070;52.382;5.270;2022-07-29T11:03:43;23.10;60.50
10062;DHT22;5070;52.382;5.270;2022-07-29T11:06:15;23.10;60.60
10062;DHT22;5070;52.382;5.270;2022-07-29T11:09:17;23.10;60.60
10062;DHT22;5070;52.382;5.270;2022-07-29T11:12:03;23.10;60.70
10062;DHT22;5070;52.382;5.270;2022-07-29T11:14:55;23.10;60.70
10062;DHT22;5070;52.382;5.270;2022-07-29T11:17:25;23.10;60.80
10062;DHT22;5070;52.382;5.270;2022-07-29T11:20:31;23.20;60.90
10062;DHT22;5070;52.382;5.270;2022-07-29T11:23:00;23.10;60.90
10062;DHT22;5070;52.382;5.270;2022-07-29T11:25:28;23.20;60.90
10062;DHT22;5070;52.382;5.270;2022-07-29T11:28:21;23.20;61.80
10062;DHT22;5070;52.382;5.270;2022-07-29T11:31:10;23.20;61.10
10062;DHT22;5070;52.382;5.270;2022-07-29T11:33:39;23.20;61.10
10062;DHT22;5070;52.382;5.270;2022-07-29T11:36:22;23.20;61.20
10062;DHT22;5070;52.382;5.270;2022-07-29T11:39:27;23.20;61.20
10062;DHT22;5070;52.382;5.270;2022-07-29T11:45:12;23.20;61.30
10062;DHT22;5070;52.382;5.270;2022-07-29T11:48:00;23.20;61.20
10062;DHT22;5070;52.382;5.270;2022-07-29T11:50:50;23.20;61.20
10062;DHT22;5070;52.382;5.270;2022-07-29T11:53:18;23.20;61.20
10062;DHT22;5070;52.382;5.270;2022-07-29T11:55:54;23.20;61.20
10062;DHT22;5070;52.382;5.270;2022-07-29T11:58:24;23.20;61.30
10062;DHT22;5070;52.382;5.270;2022-07-29T12:00:53;23.30;61.40
10062;DHT22;5070;52.382;5.270;2022-07-29T12:03:24;23.30;61.50
10062;DHT22;5070;52.382;5.270;2022-07-29T12:06:10;23.30;61.40
10062;DHT22;5070;52.382;5.270;2022-07-29T12:08:41;23.30;61.50
10062;DHT22;5070;52.382;5.270;2022-07-29T12:11:17;23.30;61.50
10062;DHT22;5070;52.382;5.270;2022-07-29T12:13:48;23.30;61.50
10062;DHT22;5070;52.382;5.270;2022-07-29T12:16:17;23.30;61.60
10062;DHT22;5070;52.382;5.270;2022-07-29T12:18:58;23.30;61.60
10062;DHT22;5070;52.382;5.270;2022-07-29T12:21:35;23.30;61.60
10062;DHT22;5070;52.382;5.270;2022-07-29T12:24:22;23.30;61.50
10062;DHT22;5070;52.382;5.270;2022-07-29T12:26:54;23.30;61.50
10062;DHT22;5070;52.382;5.270;2022-07-29T12:29:23;23.30;61.60
10062;DHT22;5070;52.382;5.270;2022-07-29T12:32:02;23.30;61.60
10062;DHT22;5070;52.382;5.270;2022-07-29T12:34:31;23.40;61.60
10062;DHT22;5070;52.382;5.270;2022-07-29T12:37:01;23.30;61.60
10062;DHT22;5070;52.382;5.270;2022-07-29T12:39:29;23.40;61.60
10062;DHT22;5070;52.382;5.270;2022-07-29T12:41:58;23.40;61.70
10062;DHT22;5070;52.382;5.270;2022-07-29T12:44:43;23.40;61.70
10062;DHT22;5070;52.382;5.270;2022-07-29T12:47:12;23.40;61.70
10062;DHT22;5070;52.382;5.270;2022-07-29T12:49:40;23.40;61.80
10062;DHT22;5070;52.382;5.270;2022-07-29T12:52:28;23.40;61.90
10062;DHT22;5070;52.382;5.270;2022-07-29T12:54:57;23.40;62.10
10062;DHT22;5070;52.382;5.270;2022-07-29T12:57:25;23.40;62.30
10062;DHT22;5070;52.382;5.270;2022-07-29T13:00:05;23.40;62.30
10062;DHT22;5070;52.382;5.270;2022-07-29T13:02:34;23.40;62.30
10062;DHT22;5070;52.382;5.270;2022-07-29T13:05:04;23.40;62.20
10062;DHT22;5070;52.382;5.270;2022-07-29T13:07:35;23.50;63.00
10062;DHT22;5070;52.382;5.270;2022-07-29T13:10:23;23.50;62.20
10062;DHT22;5070;52.382;5.270;2022-07-29T13:13:05;23.50;62.10
10062;DHT22;5070;52.382;5.270;2022-07-29T13:15:35;23.50;62.20
10062;DHT22;5070;52.382;5.270;2022-07-29T13:18:03;23.50;62.20
10062;DHT22;5070;52.382;5.270;2022-07-29T13:20:32;23.50;62.20
10062;DHT22;5070;52.382;5.270;2022-07-29T13:23:01;23.50;62.10
10062;DHT22;5070;52.382;5.270;2022-07-29T13:25:30;23.60;62.20
10062;DHT22;5070;52.382;5.270;2022-07-29T13:27:59;23.60;62.20
10062;DHT22;5070;52.382;5.270;2022-07-29T13:30:27;23.60;62.20
10062;DHT22;5070;52.382;5.270;2022-07-29T13:32:55;23.60;62.20
10062;DHT22;5070;52.382;5.270;2022-07-29T13:35:23;23.60;62.20
10062;DHT22;5070;52.382;5.270;2022-07-29T13:37:51;23.60;62.20
10062;DHT22;5070;52.382;5.270;2022-07-29T13:40:21;23.60;62.20
10062;DHT22;5070;52.382;5.270;2022-07-29T13:42:49;23.60;62.20
10062;DHT22;5070;52.382;5.270;2022-07-29T13:45:17;23.60;62.30
10062;DHT22;5070;52.382;5.270;2022-07-29T13:47:47;23.60;62.30
10062;DHT22;5070;52.382;5.270;2022-07-29T13:50:15;23.70;62.40
10062;DHT22;5070;52.382;5.270;2022-07-29T13:52:43;23.60;62.20
10062;DHT22;5070;52.382;5.270;2022-07-29T13:55:11;23.70;62.30
10062;DHT22;5070;52.382;5.270;2022-07-29T13:57:40;23.70;62.20
10062;DHT22;5070;52.382;5.270;2022-07-29T14:00:09;23.70;62.30
10062;DHT22;5070;52.382;5.270;2022-07-29T14:02:37;23.70;62.30
10062;DHT22;5070;52.382;5.270;2022-07-29T14:05:06;23.70;62.30
10062;DHT22;5070;52.382;5.270;2022-07-29T14:07:34;23.70;62.30
10062;DHT22;5070;52.382;5.270;2022-07-29T14:10:06;23.70;62.30
10062;DHT22;5070;52.382;5.270;2022-07-29T14:12:34;23.80;62.50
10062;DHT22;5070;52.382;5.270;2022-07-29T14:15:04;23.70;62.40
10062;DHT22;5070;52.382;5.270;2022-07-29T14:17:32;23.80;62.50
10062;DHT22;5070;52.382;5.270;2022-07-29T14:20:00;23.80;62.40
10062;DHT22;5070;52.382;5.270;2022-07-29T14:22:31;23.80;62.50
10062;DHT22;5070;52.382;5.270;2022-07-29T14:25:06;23.80;62.40
10062;DHT22;5070;52.382;5.270;2022-07-29T14:27:41;23.80;62.30
10062;DHT22;5070;52.382;5.270;2022-07-29T14:30:11;23.90;62.70
10062;DHT22;5070;52.382;5.270;2022-07-29T14:32:39;23.80;62.60
10062;DHT22;5070;52.382;5.270;2022-07-29T14:35:08;23.90;62.60
10062;DHT22;5070;52.382;5.270;2022-07-29T14:37:37;23.90;62.60
10062;DHT22;5070;52.382;5.270;2022-07-29T14:40:07;23.90;62.70
10062;DHT22;5070;52.382;5.270;2022-07-29T14:42:35;23.90;62.60
10062;DHT22;5070;52.382;5.270;2022-07-29T14:45:05;23.90;62.50
10062;DHT22;5070;52.382;5.270;2022-07-29T14:47:35;23.90;62.50
10062;DHT22;5070;52.382;5.270;2022-07-29T14:50:06;23.90;62.60
10062;DHT22;5070;52.382;5.270;2022-07-29T14:52:35;24.00;62.70
10062;DHT22;5070;52.382;5.270;2022-07-29T14:55:04;24.00;62.70
10062;DHT22;5070;52.382;5.270;2022-07-29T14:57:46;24.00;62.70
10062;DHT22;5070;52.382;5.270;2022-07-29T15:00:15;24.00;62.70
10062;DHT22;5070;52.382;5.270;2022-07-29T15:02:44;24.00;62.80
10062;DHT22;5070;52.382;5.270;2022-07-29T15:05:28;24.00;62.90
10062;DHT22;5070;52.382;5.270;2022-07-29T15:07:56;24.00;63.20
10062;DHT22;5070;52.382;5.270;2022-07-29T15:10:26;24.00;63.30
10062;DHT22;5070;52.382;5.270;2022-07-29T15:12:55;24.10;63.40
10062;DHT22;5070;52.382;5.270;2022-07-29T15:15:24;24.10;63.50
10062;DHT22;5070;52.382;5.270;2022-07-29T15:17:53;24.10;63.50
10062;DHT22;5070;52.382;5.270;2022-07-29T15:20:21;24.10;63.70
10062;DHT22;5070;52.382;5.270;2022-07-29T15:22:51;24.10;63.60
10062;DHT22;5070;52.382;5.270;2022-07-29T15:25:21;24.20;63.80
10062;DHT22;5070;52.382;5.270;2022-07-29T15:27:50;24.10;63.70
10062;DHT22;5070;52.382;5.270;2022-07-29T15:30:28;24.20;63.90
10062;DHT22;5070;52.382;5.270;2022-07-29T15:33:02;24.20;64.00
10062;DHT22;5070;52.382;5.270;2022-07-29T15:35:30;24.20;63.90
10062;DHT22;5070;52.382;5.270;2022-07-29T15:37:58;24.20;63.70
10062;DHT22;5070;52.382;5.270;2022-07-29T15:40:26;24.20;63.70
10062;DHT22;5070;52.382;5.270;2022-07-29T15:42:54;24.30;64.00
10062;DHT22;5070;52.382;5.270;2022-07-29T15:45:24;24.30;64.00
10062;DHT22;5070;52.382;5.270;2022-07-29T15:47:57;24.30;63.90
10062;DHT22;5070;52.382;5.270;2022-07-29T15:50:26;24.30;64.00
10062;DHT22;5070;52.382;5.270;2022-07-29T15:52:54;24.30;64.00
10062;DHT22;5070;52.382;5.270;2022-07-29T15:55:22;24.30;64.00
10062;DHT22;5070;52.382;5.270;2022-07-29T15:57:51;24.40;64.10
10062;DHT22;5070;52.382;5.270;2022-07-29T16:00:25;24.40;64.00
10062;DHT22;5070;52.382;5.270;2022-07-29T16:02:53;24.40;64.00
10062;DHT22;5070;52.382;5.270;2022-07-29T16:05:21;24.40;64.10
10062;DHT22;5070;52.382;5.270;2022-07-29T16:07:50;24.40;64.10
10062;DHT22;5070;52.382;5.270;2022-07-29T16:10:21;24.50;64.20
10062;DHT22;5070;52.382;5.270;2022-07-29T16:12:48;24.50;64.20
10062;DHT22;5070;52.382;5.270;2022-07-29T16:15:16;24.50;64.10
10062;DHT22;5070;52.382;5.270;2022-07-29T16:17:44;24.50;64.00